sensor_id;sensor_type;location;lat;lon;timestamp;pressure;altitude;pressure_sealevel;temperature;humidity
26839;BME280;40088;51.214;6.786;2023-04-08T00:09:36;101880.09;;;16.22;55.98
26839;BME280;40088;51.214;6.786;2023-04-08T00:19:36;101877.19;;;16.24;55.82
26839;BME280;40088;51.214;6.786;2023-04-08T00:29:36;101881.84;;;16.23;56.03
26839;BME280;40088;51.214;6.786;2023-04-08T00:39:37;101882.84;;;16.22;56.03
26839;BME280;40088;51.214;6.786;2023-04-08T00:49:37;101881.13;;;16.21;56.21
26839;BME280;40088;51.214;6.786;2023-04-08T00:59:37;101882.84;;;16.22;56.17
26839;BME280;40088;51.214;6.786;2023-04-08T01:09:46;101891.09;;;16.22;55.98
26839;BME280;40088;51.214;6.786;2023-04-08T01:19:48;101894.88;;;16.21;56.16
26839;BME280;40088;51.214;6.786;2023-04-08T01:29:48;101894.88;;;16.21;56.09
26839;BME280;40088;51.214;6.786;2023-04-08T01:39:49;101892.97;;;16.22;56.17
26839;BME280;40088;51.214;6.786;2023-04-08T01:49:51;101897.63;;;16.21;56.08
26839;BME280;40088;51.214;6.786;2023-04-08T01:59:55;101900.38;;;16.21;56.34
26839;BME280;40088;51.214;6.786;2023-04-08T02:09:58;101912.41;;;16.20;56.12
26839;BME280;40088;51.214;6.786;2023-04-08T02:20:09;101898.66;;;16.20;56.32
26839;BME280;40088;51.214;6.786;2023-04-08T02:30:10;101903.28;;;16.20;56.38
26839;BME280;40088;51.214;6.786;2023-04-08T02:40:31;101906.72;;;16.22;56.28
26839;BME280;40088;51.214;6.786;2023-04-08T02:50:32;101904.16;;;16.20;56.17
26839;BME280;40088;51.214;6.786;2023-04-08T03:00:32;101908.78;;;16.20;56.27
26839;BME280;40088;51.214;6.786;2023-04-08T03:10:32;101920.81;;;16.19;56.46
26839;BME280;40088;51.214;6.786;2023-04-08T03:20:33;101924.25;;;16.21;56.39
26839;BME280;40088;51.214;6.786;2023-04-08T03:30:33;101923.22;;;16.22;56.31
26839;BME280;40088;51.214;6.786;2023-04-08T03:40:33;101916.88;;;16.21;56.39
26839;BME280;40088;51.214;6.786;2023-04-08T03:50:33;101921.50;;;16.21;56.36
26839;BME280;40088;51.214;6.786;2023-04-08T04:00:34;101929.75;;;16.21;56.47
26839;BME280;40088;51.214;6.786;2023-04-08T04:10:35;101927.00;;;16.21;56.12
26839;BME280;40088;51.214;6.786;2023-04-08T04:20:39;101934.22;;;16.22;56.38
26839;BME280;40088;51.214;6.786;2023-04-08T04:30:39;101950.72;;;16.22;56.48
26839;BME280;40088;51.214;6.786;2023-04-08T04:40:39;101957.25;;;16.21;56.61
26839;BME280;40088;51.214;6.786;2023-04-08T04:50:40;101963.63;;;16.21;56.56
26839;BME280;40088;51.214;6.786;2023-04-08T05:00:40;101972.72;;;16.22;56.38
26839;BME280;40088;51.214;6.786;2023-04-08T05:10:41;101975.47;;;16.22;56.60
26839;BME280;40088;51.214;6.786;2023-04-08T05:20:41;101978.22;;;16.22;56.45
26839;BME280;40088;51.214;6.786;2023-04-08T05:30:41;101986.66;;;16.20;56.33
26839;BME280;40088;51.214;6.786;2023-04-08T05:40:41;101994.72;;;16.22;56.63
26839;BME280;40088;51.214;6.786;2023-04-08T05:50:42;102009.50;;;16.21;56.40
26839;BME280;40088;51.214;6.786;2023-04-08T06:00:42;102017.78;;;16.21;56.48
26839;BME280;40088;51.214;6.786;2023-04-08T06:10:51;102026.03;;;16.21;56.58
26839;BME280;40088;51.214;6.786;2023-04-08T06:20:52;102033.25;;;16.22;56.38
26839;BME280;40088;51.214;6.786;2023-04-08T06:30:52;102042.34;;;16.22;56.44
26839;BME280;40088;51.214;6.786;2023-04-08T06:40:52;102052.34;;;16.23;56.51
26839;BME280;40088;51.214;6.786;2023-04-08T06:50:56;102052.50;;;16.22;56.34
26839;BME280;40088;51.214;6.786;2023-04-08T07:00:58;102067.97;;;16.23;56.69
26839;BME280;40088;51.214;6.786;2023-04-08T07:10:58;102075.22;;;16.24;56.55
26839;BME280;40088;51.214;6.786;2023-04-08T07:20:58;102078.09;;;16.22;56.33
26839;BME280;40088;51.214;6.786;2023-04-08T07:31:16;102084.47;;;16.23;56.56
26839;BME280;40088;51.214;6.786;2023-04-08T07:41:17;102100.97;;;16.23;56.31
26839;BME280;40088;51.214;6.786;2023-04-08T07:51:17;102112.88;;;16.23;56.64
26839;BME280;40088;51.214;6.786;2023-04-08T08:01:19;102121.97;;;16.24;56.47
26839;BME280;40088;51.214;6.786;2023-04-08T08:11:20;102130.22;;;16.24;56.37
26839;BME280;40088;51.214;6.786;2023-04-08T08:21:21;102141.34;;;16.22;56.46
26839;BME280;40088;51.214;6.786;2023-04-08T08:31:21;102151.38;;;16.23;56.56
26839;BME280;40088;51.214;6.786;2023-04-08T08:41:22;102154.97;;;16.24;56.74
26839;BME280;40088;51.214;6.786;2023-04-08T08:51:23;102165.97;;;16.24;56.53
26839;BME280;40088;51.214;6.786;2023-04-08T09:01:38;102156.88;;;16.23;56.61
26839;BME280;40088;51.214;6.786;2023-04-08T09:11:44;102164.09;;;16.24;56.49
26839;BME280;40088;51.214;6.786;2023-04-08T09:21:45;102165.97;;;16.24;56.63
26839;BME280;40088;51.214;6.786;2023-04-08T09:31:52;102175.09;;;16.24;56.61
26839;BME280;40088;51.214;6.786;2023-04-08T09:41:57;102185.22;;;16.24;56.53
26839;BME280;40088;51.214;6.786;2023-04-08T09:52:14;102182.47;;;16.24;56.46
26839;BME280;40088;51.214;6.786;2023-04-08T10:02:24;102193.47;;;16.24;56.45
26839;BME280;40088;51.214;6.786;2023-04-08T10:12:28;102188.84;;;16.24;56.44
26839;BME280;40088;51.214;6.786;2023-04-08T10:32:28;102187.81;;;16.25;56.73
26839;BME280;40088;51.214;6.786;2023-04-08T10:42:29;102193.47;;;16.24;56.69
26839;BME280;40088;51.214;6.786;2023-04-08T10:52:30;102189.88;;;16.23;56.55
26839;BME280;40088;51.214;6.786;2023-04-08T11:02:32;102182.47;;;16.24;56.74
26839;BME280;40088;51.214;6.786;2023-04-08T11:12:33;102174.22;;;16.24;56.71
26839;BME280;40088;51.214;6.786;2023-04-08T11:22:34;102160.47;;;16.24;56.64
26839;BME280;40088;51.214;6.786;2023-04-08T11:32:35;102160.31;;;16.25;56.51
26839;BME280;40088;51.214;6.786;2023-04-08T11:42:36;102157.72;;;16.24;56.52
26839;BME280;40088;51.214;6.786;2023-04-08T11:52:54;102162.19;;;16.25;56.50
26839;BME280;40088;51.214;6.786;2023-04-08T12:02:56;102153.94;;;16.25;56.54
26839;BME280;40088;51.214;6.786;2023-04-08T12:12:56;102170.44;;;16.25;56.44
26839;BME280;40088;51.214;6.786;2023-04-08T12:22:56;102167.69;;;16.25;56.61
26839;BME280;40088;51.214;6.786;2023-04-08T12:32:56;102176.97;;;16.24;56.45
26839;BME280;40088;51.214;6.786;2023-04-08T12:42:57;102186.09;;;16.24;56.36
26839;BME280;40088;51.214;6.786;2023-04-08T12:52:57;102186.09;;;16.24;56.50
26839;BME280;40088;51.214;6.786;2023-04-08T13:02:58;102186.94;;;16.25;56.52
26839;BME280;40088;51.214;6.786;2023-04-08T13:12:58;102183.34;;;16.24;56.23
26839;BME280;40088;51.214;6.786;2023-04-08T13:22:58;102174.22;;;16.24;56.23
26839;BME280;40088;51.214;6.786;2023-04-08T13:32:59;102180.59;;;16.24;56.29
26839;BME280;40088;51.214;6.786;2023-04-08T13:43:00;102175.94;;;16.25;56.11
26839;BME280;40088;51.214;6.786;2023-04-08T13:53:01;102161.34;;;16.24;56.22
26839;BME280;40088;51.214;6.786;2023-04-08T14:03:01;102160.31;;;16.25;56.40
26839;BME280;40088;51.214;6.786;2023-04-08T14:13:01;102161.16;;;16.26;56.35
26839;BME280;40088;51.214;6.786;2023-04-08T14:23:02;102156.69;;;16.25;56.37
26839;BME280;40088;51.214;6.786;2023-04-08T14:33:02;102147.41;;;16.26;56.17
26839;BME280;40088;51.214;6.786;2023-04-08T14:43:04;102142.94;;;16.25;56.34
26839;BME280;40088;51.214;6.786;2023-04-08T14:53:04;102144.66;;;16.26;56.25
26839;BME280;40088;51.214;6.786;2023-04-08T15:03:04;102144.66;;;16.26;56.17
26839;BME280;40088;51.214;6.786;2023-04-08T15:13:05;102150.16;;;16.26;56.37
26839;BME280;40088;51.214;6.786;2023-04-08T15:23:07;102151.03;;;16.26;56.34
26839;BME280;40088;51.214;6.786;2023-04-08T15:33:07;102148.28;;;16.26;56.38
26839;BME280;40088;51.214;6.786;2023-04-08T15:43:07;102160.16;;;16.27;56.24
26839;BME280;40088;51.214;6.786;2023-04-08T15:53:09;102166.50;;;16.27;56.34
26839;BME280;40088;51.214;6.786;2023-04-08T16:03:09;102154.81;;;16.25;56.19
26839;BME280;40088;51.214;6.786;2023-04-08T16:13:10;102151.03;;;16.26;56.34
26839;BME280;40088;51.214;6.786;2023-04-08T16:23:11;102159.13;;;16.28;56.40
26839;BME280;40088;51.214;6.786;2023-04-08T16:33:14;102159.28;;;16.26;56.33
26839;BME280;40088;51.214;6.786;2023-04-08T16:43:15;102163.75;;;16.27;56.39
26839;BME280;40088;51.214;6.786;2023-04-08T16:53:15;102173.91;;;16.27;56.63
26839;BME280;40088;51.214;6.786;2023-04-08T17:03:15;102174.75;;;16.27;56.52
26839;BME280;40088;51.214;6.786;2023-04-08T17:13:16;102176.66;;;16.27;56.55
26839;BME280;40088;51.214;6.786;2023-04-08T17:23:16;102168.41;;;16.27;56.47
26839;BME280;40088;51.214;6.786;2023-04-08T17:33:16;102164.63;;;16.28;56.34
26839;BME280;40088;51.214;6.786;2023-04-08T17:43:16;102175.78;;;16.26;56.56
26839;BME280;40088;51.214;6.786;2023-04-08T17:53:17;102184.91;;;16.27;56.52
26839;BME280;40088;51.214;6.786;2023-04-08T18:03:17;102191.25;;;16.27;56.49
26839;BME280;40088;51.214;6.786;2023-04-08T18:13:18;102200.38;;;16.28;56.44
26839;BME280;40088;51.214;6.786;2023-04-08T18:23:18;102210.69;;;16.26;56.61
26839;BME280;40088;51.214;6.786;2023-04-08T18:33:19;102218.94;;;16.26;56.63
26839;BME280;40088;51.214;6.786;2023-04-08T18:43:19;102229.78;;;16.27;56.31
26839;BME280;40088;51.214;6.786;2023-04-08T18:53:20;102234.41;;;16.27;56.58
26839;BME280;40088;51.214;6.786;2023-04-08T19:03:21;102242.66;;;16.27;56.48
26839;BME280;40088;51.214;6.786;2023-04-08T19:13:21;102239.91;;;16.27;56.49
26839;BME280;40088;51.214;6.786;2023-04-08T19:23:22;102226.16;;;16.27;56.51
26839;BME280;40088;51.214;6.786;2023-04-08T19:33:23;102237.16;;;16.27;56.62
26839;BME280;40088;51.214;6.786;2023-04-08T19:43:25;102243.53;;;16.27;56.50
26839;BME280;40088;51.214;6.786;2023-04-08T19:53:25;102250.91;;;16.27;56.67
26839;BME280;40088;51.214;6.786;2023-04-08T20:03:26;102245.41;;;16.27;56.11
26839;BME280;40088;51.214;6.786;2023-04-08T20:13:27;102262.78;;;16.27;56.58
26839;BME280;40088;51.214;6.786;2023-04-08T20:23:27;102263.63;;;16.28;56.58
26839;BME280;40088;51.214;6.786;2023-04-08T20:33:27;102273.78;;;16.27;56.58
26839;BME280;40088;51.214;6.786;2023-04-08T20:43:27;102262.78;;;16.27;56.47
26839;BME280;40088;51.214;6.786;2023-04-08T20:53:28;102262.78;;;16.27;56.47
26839;BME280;40088;51.214;6.786;2023-04-08T21:03:28;102258.31;;;16.26;56.65
26839;BME280;40088;51.214;6.786;2023-04-08T21:13:29;102264.66;;;16.27;56.79
26839;BME280;40088;51.214;6.786;2023-04-08T21:23:29;102264.66;;;16.27;56.63
26839;BME280;40088;51.214;6.786;2023-04-08T21:33:29;102265.53;;;16.27;56.66
26839;BME280;40088;51.214;6.786;2023-04-08T21:43:31;102269.13;;;16.28;56.54
26839;BME280;40088;51.214;6.786;2023-04-08T21:53:31;102260.19;;;16.26;56.57
26839;BME280;40088;51.214;6.786;2023-04-08T22:03:32;102261.91;;;16.27;56.64
26839;BME280;40088;51.214;6.786;2023-04-08T22:13:33;102260.19;;;16.26;56.57
26839;BME280;40088;51.214;6.786;2023-04-08T22:23:33;102255.56;;;16.26;56.43
26839;BME280;40088;51.214;6.786;2023-04-08T22:33:34;102249.19;;;16.26;56.68
26839;BME280;40088;51.214;6.786;2023-04-08T22:43:34;102241.09;;;16.24;56.78
26839;BME280;40088;51.214;6.786;2023-04-08T22:53:35;102253.81;;;16.25;56.57
26839;BME280;40088;51.214;6.786;2023-04-08T23:03:35;102243.00;;;16.24;56.71
26839;BME280;40088;51.214;6.786;2023-04-08T23:13:35;102234.75;;;16.24;56.53
26839;BME280;40088;51.214;6.786;2023-04-08T23:23:36;102235.72;;;16.23;56.60
26839;BME280;40088;51.214;6.786;2023-04-08T23:33:36;102231.25;;;16.22;56.77
26839;BME280;40088;51.214;6.786;2023-04-08T23:43:36;102234.88;;;16.22;56.70
26839;BME280;40088;51.214;6.786;2023-04-08T23:53:36;102245.00;;;16.22;56.72
